Detall de PIREP

Printer-friendly versionPDF version

[2010/07/31 16:32:00]
Flight IATA:CT1004
Pilot Number:042
Company ICAO:CAT
Aircraft Type:B744/E
PAX:350
Departing Airport: LEPA
Destination Airport: LECO
Alternate Airport:LEMD
Online: VATSIM
Route:TURIA UN733 FORNO
Flight Level:FL330
No Slew and time accel
No pause
Crash detect
Detect pilot in Cockpit between each 30 and 45 minutes
16:32 Zero fuel Weight: 466688 Lbs, Fuel Weight: 206592 Lbs
16:32 VATSIM:LEPA 311600Z 22011KT 9999 FEW030 28/17 Q1016 NOSIG
16:32 VATSIM:LECO 311600Z 35013G26KT 310V030 CAVOK 23/17 Q1016
16:32 VOICE CATALONIAN/SUMMER CHARTER
16:52 Parking Brakes off
16:59 Take-off
16:59 Take off Weight: 670030 Lbs
16:59 Wind: 206 @ 010 Knots Heading: 235
16:59 POS N39 33 12 E002 43 30
16:59 Gear Up: 194 Knots
16:59 Flaps:3 at 194 Knots
16:59 Flaps:2 at 195 Knots
16:59 Flaps:1 at 191 Knots
17:00 Flaps:0 at 233 Knots
17:14 Wind:257@027 Kno
ts Heading: 270 Ground Speed: 480 Knots Altitude 31794 ft
17:15 TOC
17:15 Fuel Weight: 189487 Lb
17:29 Wind:242@039 Knots Heading: 295 Ground Speed: 486 Knots Altitude 33034 ft
17:44 Wind:227@057 Knots Heading: 290 Ground Speed: 488 Knots Altitude 33064 ft
17:59 Wind:217@057 Knots Heading: 297 Ground Speed: 502 Knots Altitude 33054 ft
18:02 TOD
18:02 Fuel Weight: 170273 Lb
18:13 Flaps:1 at 230 Knots
18:14 Wind:337@008 Knots Heading: 334 Ground Speed: 241 Knots Altitude 7634 ft
18:14 Flaps:2 at 221 Knots
18:16 Flaps:3 at 203 Knots
18:17 Flaps:4 at 176 Knots
18:18 Flaps:5 at 167 Knots
18:19 Gear Down: 168 Knots
18:19 Flaps:6 at 171 Knots
18:23 TouchDown:Rate -39 ft/min Speed: 155 Knots
18:23 VATSIM:LECO 311800Z 36010KT 330V040 9999 FEW030 22/17 Q1016
18:23 Land
18:23 Wind:012@010 Knots
18:23 Heading: 211
18:23 Flight Duration: 01:24
18:23 Landin
g Weight: 630851 Lbs
18:23 POS N43 17 50 W008 22 51
18:26 Parking brakes on
18:26 Block to Block Duration: 01:34
18:26 Final Fuel: 162663 Lbls
18:26 Spent Fuel: 43928 Lbls
18:26 Flight Length: 594 NM
18:26 TOD Land Length: 103 NM

Exportar CSV

Powered by Drupal - Modified by Danger4k